Terminal Aerodrome Forecast
Issued by NWS

Home | Current Version | Previous Version | Text Only | Print | Product List | Glossary On
Versions: 1 2 3 4 5 6 7 8 9 10 11 12 13 14 15 16 17 18 19 20 21 22 23 24 25 26 27 28
000
FTUS43 KDMX 302326
TAFFOD
TAF
KFOD 302326Z 3100/3124 03010KT P6SM OVC010
     FM310600 02006KT P6SM OVC007
     FM311300 02007KT P6SM OVC010
     FM312100 04009KT P6SM BKN025
     FM312300 05007KT P6SM OVC020=

USA.gov is the U.S. government's official web portal to all federal, state and local government web resources and services.